Nelsonville, WI (54458)

12:58 AM CDT on September 02, 2015 (GMT -0500)
Corks Repair | | Change Station
CLOSE
Current Station
Personal Weather Station
Location: Iola, WI
Elevation: 950 ft
Nearby Weather Stations

Elev 950 ft 44.55 °N, 89.19 °W | Updated 21 seconds ago

Partly Cloudy
Partly Cloudy
69.4 °F
Feels Like 69.4 °F
N
0.0
Wind Variable Wind from SSW
Gusts 0.0 mph

Today
High -- | Low -- °F
--% Chance of Precip.
Yesterday
High -- | Low -- °F
Precip. -- in
6:20 AM 7:32 PM
Waning Gibbous, 83% visible
Pressure 29.99 in
Visibility 7.0 miles
Clouds Scattered Clouds 2800 ft
Scattered Clouds 3500 ft
Dew Point 69 °F
Humidity 99%
Rainfall 0.00 in
Snow Depth Not available.
UV 0.0 out of 12
Pollen 10.40 out of 12
Air Quality Not available.
Flu Activity Not available.
METAR KSTE 020535Z AUTO 00000KT 7SM SCT028 SCT035 21/20 A2999 RMK AO2 T02080202
Pressure 29.99 in
Visibility 7.0 miles
Clouds Scattered Clouds 2800 ft
Scattered Clouds 3500 ft
Dew Point 69 °F
Humidity 99%
Rainfall 0.00 in
Snow Depth Not available.
UV 0.0 out of 12
Pollen 10.40 out of 12
Air Quality Not available.
Flu Activity Not available.
METAR KSTE 020535Z AUTO 00000KT 7SM SCT028 SCT035 21/20 A2999 RMK AO2 T02080202

10-Day Weather Forecast

×

Almanac

Astronomy

Sep. 02, 2015 Rise Set
Actual Time
Civil Twilight
Nautical Twilight
Astronomical Twilight
Moon
Length of Visible Light
Length of Day
Tomorrow will be .
, % of the Moon is Illuminated

Today's Extremes

State Highs State Lows

Community

WunderPhotos

Upload Photos

1,851,709 photos uploaded!

WunderBlogs® & News

Nearby

Air Quality

  Air Quality AQ Index Pollutant
Not available.

Snow Depth

Station Depth Elevation

Earthquake Activity

City Distance Mag. Time & Date
Minimum magnitude displayed is 2.5.

Coastal Water Temperatures

Place Temperature

Stations

Nearby Weather Stations

Station Location Temp. Windchill Dew Point Humidity Wind Precip. Elev Updated Type